New Orleans, Louisiana
Traffic Map
Current Weather Conditions
New Orleans, Louisiana
Clear
Clear
88°
Feels Like: 94°
Wind Chill: 88° Ceiling: Unl
Heat Index: 94° Visibility: 10mi
Dew Point: 72° Wind: 5mph
Humidity: 58% Direction: 200° (SSW)
Pressure: 30.06in Gusts: 0mph
Raw Report DataKVSH 202235Z AUTO 20004KT 10SM CLR 31/22 A3006 RMK AO1
Traffic Incident Summary
Active as of:
Severity:
Category:
InformationThere was an issue retrieving the traffic information for this location. Please try a different location or try again shortly.
Advertisements
Track Severe Weather on mobile